Terminal Aerodrome Forecast
Issued by NWS

Home | Current Version | Previous Version | Text Only | Print | Product List | Glossary On
Versions: 1 2 3 4 5 6 7 8 9 10 11 12 13 14
000
FTUS46 KSGX 241100
TAFSNA
TAF
KSNA 241136Z 2412/2512 20005KT P6SM SCT250
     FM241900 22010KT P6SM FEW020
     FM250300 VRB05KT P6SM BKN015
     FM250600 14007KT P6SM OVC015=

USA.gov is the U.S. government's official web portal to all federal, state and local government web resources and services.